Anchor, Texas
Current Conditions -  °F | °C
As of 1:23 PM on Thursday 18 Dec 2014 (Local Time) from KLBX Reporting Station
Overcast Overcast  
Wind Chill: 71°   Ceiling: 1500
Heat Index: 71°   Visibility: 10mi
Dew Point: 68°   Wind: 3mph
Humidity: 90%   Direction: 40°NE
Pressure: 30.03"   Gusts: NA
Location:  29.1898°N, 95.4754°W
Report Text: KLBX 181923Z AUTO 04003KT 10SM SCT010 BKN015 OVC028 22/20 A3003 RMK AO2 T02170200
Loading
Personal Weather Stations






























Interactive Weather Map New forecast layout! Learn more

10-Day Weather Forecast

Advertisements
Track Severe Weather on mobile